Time;durP1;ratioP1;P1;durP2;ratioP2;P2;SDS_P1;SDS_P2;PMS_P1;PMS_P2;Temp;Humidity;BMP_temperature;BMP_pressure;BME280_temperature;BME280_humidity;BME280_pressure;Samples;Min_cycle;Max_cycle;Signal;HPM_P1;HPM_P2
2023/10/04 00:02:11;;;;;;;6.43;2.53;;;;;;;;;;5061822;28;20025;-67
2023/10/04 00:04:38;;;;;;;5.18;2.42;;;;;;;;;;5063205;28;20020;-67
2023/10/04 00:07:04;;;;;;;4.93;2.50;;;;;;;;;;5071466;28;20097;-67
2023/10/04 00:09:34;;;;;;;4.95;2.30;;;;;;;;;;5063598;28;20105;-67
2023/10/04 00:12:01;;;;;;;6.88;2.67;;;;;;;;;;5064794;28;20099;-67
2023/10/04 00:14:27;;;;;;;4.82;2.20;;;;;;;;;;5062568;28;20033;-67
2023/10/04 00:16:54;;;;;;;3.92;2.20;;;;;;;;;;5067432;28;20980;-67
2023/10/04 00:19:20;;;;;;;5.45;2.15;;;;;;;;;;5057407;28;20478;-67
2023/10/04 00:21:46;;;;;;;3.83;2.20;;;;;;;;;;5065978;28;20035;-67
2023/10/04 00:24:13;;;;;;;5.15;2.67;;;;;;;;;;5069985;28;20378;-67
2023/10/04 00:26:42;;;;;;;5.30;2.20;;;;;;;;;;5057211;28;20024;-67
2023/10/04 00:29:08;;;;;;;5.72;2.45;;;;;;;;;;5058199;28;20052;-67
2023/10/04 00:31:36;;;;;;;5.97;2.85;;;;;;;;;;5059133;28;20017;-67
2023/10/04 00:34:03;;;;;;;7.80;2.47;;;;;;;;;;5065324;28;20036;-67
2023/10/04 00:36:29;;;;;;;5.22;2.30;;;;;;;;;;5060438;28;20024;-67
2023/10/04 00:38:55;;;;;;;4.75;2.17;;;;;;;;;;5060170;28;20242;-67
2023/10/04 00:41:22;;;;;;;5.38;2.67;;;;;;;;;;5069662;28;20529;-67
2023/10/04 00:43:51;;;;;;;3.65;2.35;;;;;;;;;;5059758;28;20119;-67
2023/10/04 00:46:21;;;;;;;4.32;1.90;;;;;;;;;;5057899;28;20094;-67
2023/10/04 00:48:49;;;;;;;6.07;2.45;;;;;;;;;;5045242;28;20056;-67
2023/10/04 00:51:16;;;;;;;4.03;2.28;;;;;;;;;;5043774;28;20097;-66
2023/10/04 00:53:43;;;;;;;6.13;2.13;;;;;;;;;;5046775;28;20159;-66
2023/10/04 00:56:09;;;;;;;7.68;2.67;;;;;;;;;;5050649;28;20021;-67
2023/10/04 00:58:35;;;;;;;5.95;2.30;;;;;;;;;;5050463;28;20017;-67
2023/10/04 01:01:01;;;;;;;4.88;2.35;;;;;;;;;;5051739;28;20029;-67
2023/10/04 01:03:32;;;;;;;5.22;2.20;;;;;;;;;;5051558;28;20040;-66
2023/10/04 01:05:58;;;;;;;3.95;2.08;;;;;;;;;;5050387;28;20104;-67
2023/10/04 01:08:24;;;;;;;4.00;2.50;;;;;;;;;;5051415;28;20017;-66
2023/10/04 01:10:52;;;;;;;5.38;2.50;;;;;;;;;;5050536;28;20017;-66
2023/10/04 01:13:22;;;;;;;5.35;2.80;;;;;;;;;;5051524;28;20029;-67
2023/10/04 01:15:55;;;;;;;3.45;2.22;;;;;;;;;;5050475;28;21294;-67
2023/10/04 01:18:21;;;;;;;4.30;2.40;;;;;;;;;;5049727;28;20039;-67
2023/10/04 01:20:48;;;;;;;5.93;2.47;;;;;;;;;;5049408;28;20032;-67
2023/10/04 01:23:14;;;;;;;7.30;2.20;;;;;;;;;;5050951;28;20036;-66
2023/10/04 01:25:42;;;;;;;4.88;2.50;;;;;;;;;;5050553;28;20439;-67
2023/10/04 01:28:12;;;;;;;3.63;1.80;;;;;;;;;;5051775;28;20090;-67
2023/10/04 01:30:45;;;;;;;6.82;2.30;;;;;;;;;;5050733;28;20108;-67
2023/10/04 01:33:15;;;;;;;3.78;2.53;;;;;;;;;;5051562;28;20381;-66
2023/10/04 01:35:54;;;;;;;6.75;2.58;;;;;;;;;;5050756;28;20041;-66
2023/10/04 01:38:32;;;;;;;4.18;2.30;;;;;;;;;;5051604;28;20028;-66
2023/10/04 01:40:58;;;;;;;4.28;2.17;;;11.20;99.90;;;;;;5047838;28;20525;-67
2023/10/04 01:43:25;;;;;;;4.68;2.00;;;11.10;99.90;;;;;;5050877;28;20033;-67
2023/10/04 01:45:58;;;;;;;4.65;2.72;;;11.00;99.90;;;;;;5049692;28;20692;-67
2023/10/04 01:48:35;;;;;;;3.42;2.05;;;10.90;99.90;;;;;;5034972;28;20045;-67
2023/10/04 01:51:03;;;;;;;4.45;2.17;;;10.80;99.90;;;;;;5032021;28;20033;-66
2023/10/04 01:53:29;;;;;;;7.97;2.85;;;10.70;99.90;;;;;;5030743;28;20107;-66
2023/10/04 01:55:55;;;;;;;4.75;2.38;;;10.80;99.90;;;;;;5022552;28;20108;-66
2023/10/04 01:58:23;;;;;;;4.28;2.35;;;10.80;99.90;;;;;;5029160;28;20188;-67
2023/10/04 02:00:53;;;;;;;7.13;2.63;;;10.80;99.90;;;;;;5025513;28;20026;-67
2023/10/04 02:03:20;;;;;;;4.47;2.58;;;10.90;99.90;;;;;;5034183;28;20112;-66
2023/10/04 02:05:56;;;;;;;6.10;2.20;;;11.00;99.90;;;;;;5023100;28;20348;-66
2023/10/04 02:08:22;;;;;;;4.47;2.20;;;11.10;99.90;;;;;;5034698;28;20070;-67
2023/10/04 02:10:50;;;;;;;5.50;2.60;;;11.20;99.90;;;;;;5029309;28;20482;-66
2023/10/04 02:13:16;;;;;;;5.45;3.05;;;11.20;99.90;;;;;;5031043;28;20091;-67
2023/10/04 02:15:44;;;;;;;3.85;2.28;;;11.10;99.90;;;;;;5030470;28;20438;-67
2023/10/04 02:18:10;;;;;;;5.10;2.30;;;11.10;99.90;;;;;;5034049;28;20053;-66
2023/10/04 02:20:36;;;;;;;3.35;2.28;;;11.10;99.90;;;;;;5031805;28;20072;-67
2023/10/04 02:23:07;;;;;;;6.07;2.38;;;11.10;99.90;;;;;;5030882;28;20412;-66
2023/10/04 02:25:33;;;;;;;6.55;2.60;;;11.10;99.90;;;;;;5030265;28;20376;-69
2023/10/04 02:28:09;;;;;;;5.03;2.55;;;11.10;99.90;;;;;;5032664;28;20107;-66
2023/10/04 02:30:35;;;;;;;5.50;2.75;;;11.10;99.90;;;;;;5031026;28;20078;-67
2023/10/04 02:33:00;;;;;;;4.25;2.25;;;11.00;99.90;;;;;;5034851;28;20032;-66
2023/10/04 02:35:41;;;;;;;3.20;2.28;;;11.00;99.90;;;;;;5029462;28;20017;-66
2023/10/04 02:38:31;;;;;;;5.78;2.35;;;11.00;99.90;;;;;;5037718;28;20028;-67
2023/10/04 02:40:57;;;;;;;4.35;2.30;;;10.90;99.90;;;;;;5043467;28;20082;-67
2023/10/04 02:43:25;;;;;;;4.50;2.65;;;10.80;99.90;;;;;;5042415;28;20037;-66
2023/10/04 02:45:52;;;;;;;5.30;2.00;;;10.80;99.90;;;;;;5038691;28;20021;-66
2023/10/04 02:48:19;;;;;;;3.70;2.35;;;10.80;99.90;;;;;;5044810;28;20076;-66
2023/10/04 02:50:46;;;;;;;4.57;2.15;;;10.80;99.90;;;;;;5043483;28;20021;-67
2023/10/04 02:53:20;;;;;;;4.40;2.70;;;10.70;99.90;;;;;;5033833;28;20494;-67
2023/10/04 02:55:57;;;;;;;3.97;2.33;;;10.70;99.90;;;;;;5031762;28;20030;-67
2023/10/04 02:58:23;;;;;;;7.05;2.42;;;10.70;99.90;;;;;;5028119;28;20029;-67
2023/10/04 03:00:50;;;;;;;6.25;2.72;;;10.70;99.90;;;;;;5033213;28;20025;-67
2023/10/04 03:03:28;;;;;;;4.78;2.95;;;10.70;99.90;;;;;;5037670;28;20105;-66
2023/10/04 03:05:54;;;;;;;4.68;2.58;;;10.80;99.90;;;;;;5041005;28;20145;-66
2023/10/04 03:08:20;;;;;;;5.80;2.78;;;10.80;99.90;;;;;;5049794;28;20028;-66
2023/10/04 03:10:50;;;;;;;4.95;2.28;;;10.90;99.90;;;;;;5034791;28;20021;-66
2023/10/04 03:13:22;;;;;;;4.07;2.50;;;10.90;99.90;;;;;;5041654;28;20044;-66
2023/10/04 03:15:50;;;;;;;4.07;2.50;;;10.90;99.90;;;;;;5047311;28;20064;-66
2023/10/04 03:18:20;;;;;;;4.50;2.40;;;10.90;99.90;;;;;;5038208;28;20489;-66
2023/10/04 03:21:16;;;;;;;3.65;2.22;;;10.80;99.90;;;;;;5036772;28;20105;-66
2023/10/04 03:23:36;;;;;;;5.88;2.20;;;10.90;99.90;;;;;;5026501;28;20040;-66
2023/10/04 03:26:06;;;;;;;4.45;2.28;;;10.90;99.90;;;;;;5036919;28;20368;-66
2023/10/04 03:28:37;;;;;;;5.90;2.55;;;10.90;99.90;;;;;;5038032;28;20112;-67
2023/10/04 03:31:09;;;;;;;4.18;2.50;;;10.90;99.90;;;;;;5039513;28;20029;-66
2023/10/04 03:33:38;;;;;;;7.38;2.40;;;10.90;99.90;;;;;;5048694;28;20616;-66
2023/10/04 03:36:04;;;;;;;5.40;2.85;;;11.00;99.90;;;;;;5039528;28;20115;-66
2023/10/04 03:38:34;;;;;;;4.38;2.15;;;11.00;99.90;;;;;;5027909;28;20490;-66
2023/10/04 03:41:04;;;;;;;5.25;2.22;;;11.00;99.90;;;;;;5045579;28;20017;-66
2023/10/04 03:43:30;;;;;;;3.05;2.03;;;11.00;99.90;;;;;;5040830;28;20467;-66
2023/10/04 03:45:56;;;;;;;6.63;2.80;;;11.00;99.90;;;;;;5038444;28;20021;-66
2023/10/04 03:48:23;;;;;;;5.03;2.55;;;11.00;99.90;;;;;;5058221;28;20052;-66
2023/10/04 03:50:51;;;;;;;4.40;2.35;;;11.00;99.90;;;;;;5062762;28;20021;-67
2023/10/04 03:53:21;;;;;;;5.63;2.30;;;11.00;99.90;;;;;;5053359;28;20048;-66
2023/10/04 03:55:47;;;;;;;4.10;2.58;;;11.00;99.90;;;;;;5054810;28;20013;-66
2023/10/04 03:58:15;;;;;;;5.50;2.38;;;11.00;99.90;;;;;;5049785;28;20364;-66
2023/10/04 04:00:42;;;;;;;5.22;2.63;;;11.00;99.90;;;;;;5052623;28;20032;-66
2023/10/04 04:03:08;;;;;;;5.57;2.20;;;11.00;99.90;;;;;;5058088;28;20036;-66
2023/10/04 04:05:40;;;;;;;4.93;2.75;;;11.00;99.90;;;;;;5058972;28;20036;-67
2023/10/04 04:08:07;;;;;;;6.97;2.85;;;11.00;99.90;;;;;;5073269;28;20028;-66
2023/10/04 04:10:33;;;;;;;5.18;2.42;;;11.00;99.90;;;;;;5059825;28;20031;-67
2023/10/04 04:13:02;;;;;;;5.45;3.25;;;11.10;99.90;;;;;;5058237;28;20037;-67
2023/10/04 04:15:31;;;;;;;6.47;2.60;;;11.20;99.90;;;;;;5071568;28;20374;-67
2023/10/04 04:17:57;;;;;;;6.07;2.10;;;11.20;99.90;;;;;;5061361;28;20025;-67
2023/10/04 04:20:23;;;;;;;6.57;2.58;;;11.30;99.90;;;;;;5064050;28;20442;-67
2023/10/04 04:22:55;;;;;;;3.67;2.13;;;11.30;99.90;;;;;;5065088;28;20021;-67
2023/10/04 04:25:21;;;;;;;5.22;2.72;;;11.30;99.90;;;;;;5057385;28;20432;-67
2023/10/04 04:27:49;;;;;;;5.25;2.33;;;11.30;99.90;;;;;;5058087;28;20025;-67
2023/10/04 04:30:21;;;;;;;6.82;2.40;;;11.30;99.90;;;;;;5063802;28;20024;-67
2023/10/04 04:32:49;;;;;;;6.80;2.63;;;11.30;99.90;;;;;;5065128;28;20043;-67
2023/10/04 04:35:30;;;;;;;6.10;2.53;;;11.30;99.90;;;;;;5065138;28;20029;-67
2023/10/04 04:37:57;;;;;;;5.72;2.65;;;11.30;99.90;;;;;;5063053;28;20024;-67
2023/10/04 04:40:25;;;;;;;6.80;2.88;;;11.30;99.90;;;;;;5067373;28;20040;-67
2023/10/04 04:42:51;;;;;;;5.47;2.85;;;11.30;99.90;;;;;;5066944;28;20021;-67
2023/10/04 04:45:17;;;;;;;5.07;2.58;;;11.30;99.90;;;;;;5056871;28;20040;-67
2023/10/04 04:47:44;;;;;;;7.57;2.60;;;11.20;99.90;;;;;;5042785;28;20075;-67
2023/10/04 04:50:10;;;;;;;5.18;2.53;;;11.20;99.90;;;;;;5058919;28;20079;-67
2023/10/04 04:52:36;;;;;;;5.35;2.35;;;11.20;99.90;;;;;;5056748;28;20150;-67
2023/10/04 04:55:04;;;;;;;4.57;2.45;;;11.10;99.90;;;;;;5057651;28;20115;-66
2023/10/04 04:57:32;;;;;;;7.25;2.80;;;11.10;99.90;;;;;;5052622;28;20084;-67
2023/10/04 04:59:58;;;;;;;8.48;2.75;;;11.00;99.90;;;;;;5052736;28;20031;-67
2023/10/04 05:02:28;;;;;;;4.32;2.05;;;11.00;99.90;;;;;;5062347;28;20108;-66
2023/10/04 05:04:54;;;;;;;;;;;10.90;99.90;;;;;;5062626;28;20029;-67
2023/10/04 05:07:19;;;;;;;6.72;2.20;;;10.90;99.90;;;;;;5072079;28;19915;-67
2023/10/04 05:09:46;;;;;;;5.30;2.55;;;10.80;99.90;;;;;;5060546;28;20029;-67
2023/10/04 05:12:11;;;;;;;5.60;2.65;;;10.80;99.90;;;;;;5064864;28;20093;-66
2023/10/04 05:14:37;;;;;;;8.65;2.67;;;10.70;99.90;;;;;;5064880;28;20036;-67
2023/10/04 05:17:03;;;;;;;12.25;2.67;;;10.70;99.90;;;;;;5066762;28;20027;-67
2023/10/04 05:19:29;;;;;;;4.47;2.70;;;10.70;99.90;;;;;;5055242;28;20135;-66
2023/10/04 05:21:55;;;;;;;7.15;2.88;;;10.70;99.90;;;;;;5054102;28;20028;-66
2023/10/04 05:24:20;;;;;;;5.53;3.08;;;10.70;99.90;;;;;;5061387;28;20037;-66
2023/10/04 05:26:46;;;;;;;6.30;2.97;;;10.70;99.90;;;;;;5044690;28;20041;-66
2023/10/04 05:29:12;;;;;;;7.18;2.40;;;10.70;99.90;;;;;;5047650;28;20368;-68
2023/10/04 05:31:38;;;;;;;5.20;2.40;;;10.70;99.90;;;;;;5064971;28;20043;-73
2023/10/04 05:34:03;;;;;;;7.97;3.40;;;10.70;99.90;;;;;;5057138;28;20478;-68
2023/10/04 05:36:30;;;;;;;6.82;2.78;;;10.70;99.90;;;;;;5060526;28;20024;-67
2023/10/04 05:38:56;;;;;;;7.38;3.13;;;10.70;99.90;;;;;;5052186;28;20036;-68
2023/10/04 05:41:23;;;;;;;4.63;2.40;;;10.70;99.90;;;;;;5070079;28;20097;-67
2023/10/04 05:43:51;;;;;;;5.63;2.40;;;10.70;99.90;;;;;;5058246;28;20044;-69
2023/10/04 05:46:17;;;;;;;5.72;2.50;;;10.60;99.90;;;;;;5062021;28;20031;-67
2023/10/04 05:48:42;;;;;;;5.25;2.70;;;10.60;99.90;;;;;;5056152;28;20049;-68
2023/10/04 05:51:08;;;;;;;6.57;2.55;;;10.50;99.90;;;;;;5061945;28;20031;-67
2023/10/04 05:53:34;;;;;;;5.22;2.30;;;10.50;99.90;;;;;;5056073;28;20049;-70
2023/10/04 05:56:00;;;;;;;5.72;2.80;;;10.50;99.90;;;;;;5052108;28;20029;-66
2023/10/04 05:58:26;;;;;;;6.03;2.80;;;10.40;99.90;;;;;;5050261;28;20037;-67
2023/10/04 06:00:52;;;;;;;5.95;2.25;;;10.40;99.90;;;;;;5048314;28;20100;-67
2023/10/04 06:03:18;;;;;;;6.28;2.55;;;10.40;99.90;;;;;;5057337;28;20115;-68
2023/10/04 06:05:44;;;;;;;6.22;2.63;;;10.50;99.90;;;;;;5060348;28;20063;-68
2023/10/04 06:08:15;;;;;;;3.45;2.10;;;10.40;99.90;;;;;;5056291;28;20454;-68
2023/10/04 06:10:42;;;;;;;5.07;2.33;;;10.40;99.90;;;;;;5049679;28;20129;-68
2023/10/04 06:13:11;;;;;;;6.38;2.42;;;10.40;99.90;;;;;;5062852;28;20381;-68
2023/10/04 06:15:41;;;;;;;5.88;2.97;;;10.40;99.90;;;;;;5058353;28;20025;-68
2023/10/04 06:18:12;;;;;;;4.82;2.90;;;10.40;99.90;;;;;;5059298;28;20029;-68
2023/10/04 06:20:40;;;;;;;6.25;3.22;;;10.40;99.90;;;;;;5056738;28;20123;-67
2023/10/04 06:23:07;;;;;;;8.73;3.25;;;10.50;99.90;;;;;;5065892;28;20074;-66
2023/10/04 06:25:34;;;;;;;10.50;3.80;;;10.50;99.90;;;;;;5043143;28;20462;-68
2023/10/04 06:28:03;;;;;;;7.05;3.55;;;10.50;99.90;;;;;;5052348;28;20035;-67
2023/10/04 06:30:31;;;;;;;5.82;3.10;;;10.60;99.90;;;;;;5056980;28;20028;-67
2023/10/04 06:33:01;;;;;;;4.82;2.60;;;10.70;99.90;;;;;;5068162;28;20029;-65
2023/10/04 06:35:28;;;;;;;7.93;2.60;;;10.80;99.90;;;;;;5054602;28;20032;-70
2023/10/04 06:38:13;;;;;;;6.82;3.03;;;10.90;99.90;;;;;;5061793;28;20041;-71
2023/10/04 06:40:39;;;;;;;5.07;2.70;;;11.00;99.90;;;;;;5063464;28;20074;-70
2023/10/04 06:43:08;;;;;;;7.65;3.33;;;11.10;99.90;;;;;;5064533;28;20052;-70
2023/10/04 06:45:35;;;;;;;7.50;2.67;;;11.20;99.90;;;;;;5055255;28;20036;-73
2023/10/04 06:48:06;;;;;;;10.95;2.72;;;11.30;99.90;;;;;;5061267;28;20057;-69
2023/10/04 06:50:41;;;;;;;5.82;2.50;;;11.50;99.90;;;;;;5065359;28;20021;-72
2023/10/04 06:53:12;;;;;;;4.88;2.28;;;11.70;99.90;;;;;;5041545;28;20025;-70
2023/10/04 06:55:38;;;;;;;3.50;2.15;;;11.90;99.90;;;;;;5061682;28;20175;-70
2023/10/04 06:58:04;;;;;;;9.60;2.22;;;12.20;99.90;;;;;;5060430;28;20389;-70
2023/10/04 07:00:30;;;;;;;12.98;2.72;;;12.40;99.90;;;;;;5055844;28;20028;-73
2023/10/04 07:03:01;;;;;;;7.18;2.60;;;12.50;99.90;;;;;;5055502;28;20120;-70
2023/10/04 07:05:35;;;;;;;4.85;1.95;;;12.60;99.90;;;;;;5053008;28;20037;-69
2023/10/04 07:08:01;;;;;;;6.72;2.17;;;12.80;99.90;;;;;;5049946;28;20354;-70
2023/10/04 07:10:28;;;;;;;6.30;2.30;;;12.90;99.90;;;;;;5069101;28;20043;-70
2023/10/04 07:12:57;;;;;;;3.42;1.90;;;12.90;99.90;;;;;;5057347;28;20033;-70
2023/10/04 07:15:24;;;;;;;4.97;1.90;;;13.00;99.90;;;;;;5071759;28;20051;-70
2023/10/04 07:17:51;;;;;;;4.38;2.22;;;13.10;99.90;;;;;;5066630;28;20100;-69
2023/10/04 07:20:18;;;;;;;10.10;2.70;;;13.20;99.90;;;;;;5069681;28;20059;-70
2023/10/04 07:22:51;;;;;;;5.28;2.10;;;13.20;99.90;;;;;;5069369;28;20123;-70
2023/10/04 07:25:17;;;;;;;9.52;3.28;;;13.40;99.90;;;;;;5072373;28;20036;-69
2023/10/04 07:27:44;;;;;;;7.20;2.72;;;13.50;99.90;;;;;;5068739;28;20032;-70
2023/10/04 07:30:14;;;;;;;6.30;3.03;;;13.60;99.90;;;;;;5070753;28;20045;-69
2023/10/04 07:32:44;;;;;;;7.38;2.60;;;13.60;99.90;;;;;;5074209;28;20033;-70
2023/10/04 07:35:16;;;;;;;6.45;2.08;;;13.60;99.90;;;;;;5069418;28;20501;-69
2023/10/04 07:37:46;;;;;;;5.65;2.33;;;13.60;99.90;;;;;;5070183;28;20110;-70
2023/10/04 07:40:14;;;;;;;8.07;2.72;;;13.70;99.90;;;;;;5072573;28;20067;-67
2023/10/04 07:42:42;;;;;;;7.82;2.85;;;13.80;99.90;;;;;;5072893;28;20044;-67
2023/10/04 07:45:09;;;;;;;7.13;2.53;;;13.90;99.90;;;;;;5073510;28;20028;-67
2023/10/04 07:47:41;;;;;;;8.80;3.42;;;14.00;99.90;;;;;;5072669;28;20048;-67
2023/10/04 07:50:11;;;;;;;7.13;2.95;;;14.10;99.90;;;;;;5073652;28;20036;-67
2023/10/04 07:52:37;;;;;;;9.32;2.92;;;14.10;99.90;;;;;;5072426;28;20055;-67
2023/10/04 07:55:05;;;;;;;5.75;3.15;;;14.20;99.90;;;;;;5073072;28;20036;-67
2023/10/04 07:57:35;;;;;;;5.85;3.47;;;14.40;99.90;;;;;;5073553;28;20024;-68
2023/10/04 08:00:04;;;;;;;11.73;3.42;;;14.40;99.90;;;;;;5073288;28;20475;-67
2023/10/04 08:02:30;;;;;;;10.25;4.20;;;14.50;99.90;;;;;;5073434;28;20028;-67
2023/10/04 08:04:56;;;;;;;7.93;3.55;;;14.50;99.90;;;;;;5072166;28;20059;-67
2023/10/04 08:07:21;;;;;;;10.27;4.40;;;14.60;99.90;;;;;;5073714;28;20473;-67
2023/10/04 08:09:47;;;;;;;9.52;3.97;;;14.60;99.90;;;;;;5071739;28;20032;-67
2023/10/04 08:12:14;;;;;;;7.50;3.55;;;14.60;99.90;;;;;;5073395;28;20040;-67
2023/10/04 08:14:40;;;;;;;7.13;3.88;;;14.60;99.90;;;;;;5071905;28;20469;-67
2023/10/04 08:17:06;;;;;;;7.13;3.30;;;14.70;99.90;;;;;;5073596;28;20028;-67
2023/10/04 08:19:32;;;;;;;7.30;3.10;;;14.70;99.90;;;;;;5073164;28;20028;-68
2023/10/04 08:21:58;;;;;;;10.27;3.67;;;14.80;99.90;;;;;;5085143;28;20028;-67
2023/10/04 08:24:23;;;;;;;5.28;3.22;;;14.90;99.90;;;;;;5072901;28;20064;-67
2023/10/04 08:26:50;;;;;;;6.97;3.50;;;15.00;99.90;;;;;;5073578;28;20361;-67
2023/10/04 08:29:15;;;;;;;8.02;2.83;;;15.10;99.90;;;;;;5072819;28;20021;-67
2023/10/04 08:31:41;;;;;;;5.50;2.90;;;15.10;99.90;;;;;;5070057;28;20032;-67
2023/10/04 08:34:06;;;;;;;7.57;3.20;;;15.10;99.90;;;;;;5071852;28;20512;-67
2023/10/04 08:36:33;;;;;;;12.90;3.25;;;15.30;99.90;;;;;;5075636;28;20020;-68
2023/10/04 08:39:10;;;;;;;7.65;2.55;;;15.40;99.90;;;;;;5075571;28;20056;-67
2023/10/04 08:41:37;;;;;;;12.13;1.95;;;15.50;99.90;;;;;;5072334;28;20115;-67
2023/10/04 08:44:05;;;;;;;5.65;1.73;;;15.60;99.90;;;;;;5071949;28;20386;-67
2023/10/04 08:46:31;;;;;;;4.55;1.48;;;15.70;99.90;;;;;;5080722;28;20029;-67
2023/10/04 08:48:58;;;;;;;6.68;1.67;;;15.80;99.90;;;;;;5073003;28;20052;-67
2023/10/04 08:51:51;;;;;;;6.43;1.38;;;15.80;99.90;;;;;;5072612;28;20133;-67
2023/10/04 08:54:22;;;;;;;7.13;1.77;;;15.90;99.90;;;;;;5071998;28;20043;-67
2023/10/04 08:57:14;;;;;;;8.13;1.67;;;16.00;99.90;;;;;;5071491;28;20048;-68
2023/10/04 08:59:40;;;;;;;4.90;1.35;;;16.10;99.90;;;;;;5067272;28;20102;-68
2023/10/04 09:02:10;;;;;;;4.55;1.80;;;16.00;99.90;;;;;;5072082;28;20024;-67
2023/10/04 09:04:39;;;;;;;6.37;1.60;;;16.10;99.90;;;;;;5070665;28;20504;-68
2023/10/04 09:07:08;;;;;;;8.77;2.00;;;16.20;99.90;;;;;;5071593;28;20343;-67
2023/10/04 09:09:38;;;;;;;6.93;2.35;;;16.30;99.90;;;;;;5073889;28;20055;-67
2023/10/04 09:12:06;;;;;;;4.40;1.70;;;16.40;99.90;;;;;;5083807;28;20043;-67
2023/10/04 09:14:32;;;;;;;8.45;1.52;;;16.50;99.90;;;;;;5077072;28;20115;-67
2023/10/04 09:17:07;;;;;;;5.63;1.85;;;16.60;99.90;;;;;;5074483;28;20036;-68
2023/10/04 09:19:34;;;;;;;4.53;1.50;;;16.60;99.90;;;;;;5066726;28;20029;-68
2023/10/04 09:22:06;;;;;;;7.38;1.77;;;16.60;99.90;;;;;;5074010;28;20490;-68
2023/10/04 09:24:34;;;;;;;5.70;1.30;;;16.70;99.90;;;;;;5070936;28;20046;-67
2023/10/04 09:27:01;;;;;;;4.00;1.30;;;16.70;99.90;;;;;;5073409;28;20074;-68
2023/10/04 09:29:31;;;;;;;4.68;1.75;;;16.70;99.90;;;;;;5080830;28;20103;-67
2023/10/04 09:31:56;;;;;;;;;;;16.70;99.90;;;;;;5077769;28;20028;-67
2023/10/04 09:34:25;;;;;;;9.65;2.13;;;16.80;99.90;;;;;;5070853;28;20411;-67
2023/10/04 09:36:52;;;;;;;6.40;1.88;;;16.90;99.90;;;;;;5083864;28;20052;-67
2023/10/04 09:39:24;;;;;;;4.57;1.30;;;17.00;99.90;;;;;;5071235;28;20047;-67
2023/10/04 09:41:51;;;;;;;5.30;1.75;;;17.10;99.90;;;;;;5070893;28;20028;-67
2023/10/04 09:44:20;;;;;;;6.07;1.63;;;17.20;99.90;;;;;;5070851;28;20454;-67
2023/10/04 09:46:50;;;;;;;4.32;1.35;;;17.20;99.90;;;;;;5070177;28;20032;-67
2023/10/04 09:49:16;;;;;;;5.20;1.60;;;17.40;99.90;;;;;;5069812;28;20472;-67
2023/10/04 09:51:45;;;;;;;4.10;1.63;;;17.50;99.90;;;;;;5070465;28;20064;-67
2023/10/04 09:54:11;;;;;;;4.53;1.38;;;17.60;99.90;;;;;;5070824;28;20201;-67
2023/10/04 09:56:44;;;;;;;5.50;1.42;;;17.60;99.90;;;;;;5070173;28;20182;-67
2023/10/04 09:59:11;;;;;;;4.50;1.33;;;17.50;99.90;;;;;;5068269;28;20106;-67
2023/10/04 10:01:39;;;;;;;8.32;1.80;;;17.50;99.90;;;;;;5070012;28;20051;-67
2023/10/04 10:04:14;;;;;;;5.65;1.73;;;17.40;99.90;;;;;;5068811;28;20056;-67
2023/10/04 10:07:09;;;;;;;5.60;1.88;;;17.30;99.90;;;;;;5070348;28;20028;-66
2023/10/04 10:09:56;;;;;;;6.18;1.67;;;17.40;99.90;;;;;;5062357;28;20131;-67
2023/10/04 10:12:22;;;;;;;7.85;1.98;;;17.40;99.90;;;;;;5070729;28;20063;-66
2023/10/04 10:14:48;;;;;;;6.57;1.70;;;17.50;99.90;;;;;;5069211;28;20105;-67
2023/10/04 10:17:17;;;;;;;3.42;1.50;;;17.50;99.90;;;;;;5070393;28;20426;-66
2023/10/04 10:19:47;;;;;;;4.47;1.38;;;17.40;99.90;;;;;;5069250;28;20025;-67
2023/10/04 10:22:16;;;;;;;5.85;1.83;;;17.30;99.90;;;;;;5070741;28;20496;-66
2023/10/04 10:25:13;;;;;;;4.60;1.85;;;17.20;99.90;;;;;;5072262;28;20438;-67
2023/10/04 10:27:39;;;;;;;5.00;1.60;;;17.30;99.90;;;;;;5065132;28;20042;-66
2023/10/04 10:30:07;;;;;;;5.53;1.80;;;17.40;99.90;;;;;;5070581;28;20107;-66
2023/10/04 10:32:33;;;;;;;6.40;1.70;;;17.90;99.90;;;;;;5073963;28;20184;-67
2023/10/04 10:35:05;;;;;;;4.00;1.63;;;18.20;99.90;;;;;;5069240;28;20078;-67
2023/10/04 10:37:38;;;;;;;5.10;1.63;;;18.70;99.90;;;;;;5066324;28;20020;-67
2023/10/04 10:40:09;;;;;;;4.70;1.90;;;19.00;99.90;;;;;;5069962;28;20033;-67
2023/10/04 10:43:06;;;;;;;6.28;1.75;;;19.10;99.80;;;;;;5069815;28;20111;-67
2023/10/04 10:45:31;;;;;;;3.20;1.30;;;19.00;99.50;;;;;;5064809;28;20044;-67
2023/10/04 10:47:58;;;;;;;5.82;1.80;;;18.90;99.90;;;;;;5068827;28;20052;-67
2023/10/04 10:50:35;;;;;;;4.03;1.30;;;18.90;99.60;;;;;;5069454;28;20033;-67
2023/10/04 10:53:10;;;;;;;5.65;1.85;;;19.00;98.30;;;;;;5069202;28;20504;-67
2023/10/04 10:55:40;;;;;;;7.63;1.75;;;19.30;98.80;;;;;;5066321;28;20055;-67
2023/10/04 10:58:07;;;;;;;4.13;1.77;;;19.50;98.00;;;;;;5070064;28;20028;-67
2023/10/04 11:00:36;;;;;;;4.82;1.60;;;19.70;97.70;;;;;;5068443;28;20079;-67
2023/10/04 11:03:09;;;;;;;3.15;1.13;;;19.70;97.30;;;;;;5069724;28;20462;-67
2023/10/04 11:05:35;;;;;;;3.88;1.75;;;19.80;97.30;;;;;;5068977;28;20043;-67
2023/10/04 11:08:02;;;;;;;3.88;1.70;;;19.90;97.00;;;;;;5070031;28;20444;-67
2023/10/04 11:10:27;;;;;;;5.00;1.52;;;20.10;96.70;;;;;;5069054;28;20113;-67
2023/10/04 11:12:55;;;;;;;3.47;1.58;;;20.20;96.50;;;;;;5068435;28;20040;-67
2023/10/04 11:15:24;;;;;;;5.50;1.90;;;20.40;99.90;;;;;;5069441;28;20103;-67
2023/10/04 11:17:54;;;;;;;5.68;1.67;;;20.40;99.90;;;;;;5068686;28;20039;-67
2023/10/04 11:20:23;;;;;;;4.35;1.65;;;;;;;;;;5069529;28;20091;-67
2023/10/04 11:22:49;;;;;;;4.60;1.52;;;20.80;95.40;;;;;;5069202;28;20016;-67
2023/10/04 11:25:17;;;;;;;4.32;1.83;;;20.90;99.90;;;;;;5068884;28;20448;-67
2023/10/04 11:27:46;;;;;;;4.03;1.83;;;20.60;99.90;;;;;;5064925;28;20058;-67
2023/10/04 11:30:27;;;;;;;4.30;1.80;;;20.40;99.90;;;;;;5058201;28;20063;-67
2023/10/04 11:32:52;;;;;;;3.08;1.73;;;20.50;99.90;;;;;;5071175;28;20124;-67
2023/10/04 11:35:21;;;;;;;6.30;1.95;;;20.50;99.90;;;;;;5068130;28;20095;-67
2023/10/04 11:37:51;;;;;;;3.28;1.45;;;20.20;99.90;;;;;;5069139;28;20040;-67
2023/10/04 11:40:19;;;;;;;4.70;1.75;;;20.10;99.90;;;;;;5069310;28;20477;-66
2023/10/04 11:42:45;;;;;;;7.68;1.50;;;19.80;99.90;;;;;;5067804;28;20028;-67
2023/10/04 11:45:23;;;;;;;9.65;1.98;;;19.30;99.90;;;;;;5069326;28;20432;-66
2023/10/04 11:48:05;;;;;;;3.85;1.83;;;19.30;99.90;;;;;;5059032;28;20048;-66
2023/10/04 11:51:04;;;;;;;2.65;1.70;;;19.50;99.90;;;;;;5067710;28;20406;-67
2023/10/04 11:53:45;;;;;;;2.25;1.30;;;19.80;99.90;;;;;;5023107;28;20370;-67
2023/10/04 11:56:11;;;;;;;5.43;1.35;;;20.10;99.90;;;;;;5069832;28;20035;-66
2023/10/04 11:58:47;;;;;;;7.70;1.88;;;20.50;99.90;;;;;;5067956;28;20028;-67
2023/10/04 12:01:22;;;;;;;3.83;1.63;;;20.80;99.90;;;;;;5058173;28;20362;-67
2023/10/04 12:03:50;;;;;;;6.65;2.30;;;20.90;93.90;;;;;;5068008;28;20036;-67
2023/10/04 12:06:26;;;;;;;3.60;1.27;;;21.00;93.90;;;;;;5069424;28;20083;-67
2023/10/04 12:08:54;;;;;;;4.25;1.65;;;21.30;93.40;;;;;;5061993;28;20025;-67
2023/10/04 12:11:23;;;;;;;4.75;2.03;;;21.70;93.20;;;;;;5068644;28;20146;-67
2023/10/04 12:13:49;;;;;;;2.08;1.25;;;21.90;93.20;;;;;;5068026;28;20044;-67
2023/10/04 12:16:17;;;;;;;4.32;1.42;;;22.00;92.20;;;;;;5049440;28;20497;-67
2023/10/04 12:18:43;;;;;;;3.95;1.70;;;22.10;92.70;;;;;;5067805;28;20091;-67
2023/10/04 12:21:09;;;;;;;3.28;1.63;;;22.30;92.20;;;;;;5069541;28;20036;-67
2023/10/04 12:23:34;;;;;;;2.85;1.48;;;22.50;91.90;;;;;;5070048;28;20481;-67
2023/10/04 12:26:00;;;;;;;4.75;1.73;;;22.40;92.20;;;;;;5071786;28;20024;-66
2023/10/04 12:28:29;;;;;;;4.32;1.50;;;22.10;91.60;;;;;;5072964;28;20114;-66
2023/10/04 12:31:07;;;;;;;4.90;1.40;;;21.80;91.90;;;;;;5081862;28;20052;-66
2023/10/04 12:33:38;;;;;;;3.72;1.40;;;21.20;92.30;;;;;;5063415;28;20052;-67
2023/10/04 12:36:07;;;;;;;4.72;1.50;;;21.40;92.40;;;;;;5072606;28;20036;-67
2023/10/04 12:38:36;;;;;;;3.80;1.58;;;21.80;91.50;;;;;;5072028;28;20025;-68
2023/10/04 12:41:02;;;;;;;4.07;1.27;;;22.00;91.40;;;;;;5072470;28;20039;-67
2023/10/04 12:43:28;;;;;;;2.70;1.52;;;22.00;90.90;;;;;;5066403;28;20036;-67
2023/10/04 12:45:54;;;;;;;2.70;1.13;;;21.60;91.20;;;;;;5070943;28;20565;-67
2023/10/04 12:48:20;;;;;;;3.28;1.13;;;21.30;91.30;;;;;;5071183;28;20102;-67
2023/10/04 12:50:46;;;;;;;2.55;1.10;;;21.00;91.40;;;;;;5069903;28;20048;-67
2023/10/04 12:53:14;;;;;;;1.55;1.10;;;20.80;91.50;;;;;;5074572;28;20472;-67
2023/10/04 12:55:43;;;;;;;4.72;1.75;;;20.60;91.60;;;;;;5070156;28;20430;-67
2023/10/04 12:58:09;;;;;;;4.53;1.52;;;20.70;92.10;;;;;;5066599;28;20082;-68
2023/10/04 13:00:34;;;;;;;5.10;1.60;;;21.10;91.80;;;;;;5070528;28;20028;-67
2023/10/04 13:03:00;;;;;;;4.30;1.38;;;21.50;91.40;;;;;;5071997;28;20032;-67
2023/10/04 13:05:27;;;;;;;4.82;1.40;;;21.90;90.90;;;;;;5071210;28;20024;-67
2023/10/04 13:07:54;;;;;;;3.97;1.55;;;21.50;90.70;;;;;;5070788;28;20559;-67
2023/10/04 13:10:22;;;;;;;3.58;1.38;;;21.10;90.80;;;;;;5070674;28;20044;-67